UAE77Q OMDB-OOMS
Flight info
| Callsign | UAE77Q |
|---|---|
| Flight time | 0h 44m |
| Altitude | 25000 |
| Route | ANVIX L223 TARDI N629 MUSUK T511 MCT |
| Aircraft | B77W/H-SDE1E2E3FGHIJ2J3J4J5M1RWXY/LB1D1 |
Departure
| Time | 2026-04-23 18:45 |
|---|---|
| Airport | Dubai International Airport (OMDB) |
Arrival
| Time | 2026-04-23 19:29 |
|---|---|
| Airport | Muscat International Airport (OOMS) |
| Time | Latitude | Longitude | Altitude | Speed | Heading |
|---|---|---|---|---|---|
| 2026-04-23 18:13 | 25.23831 | 55.38318 | 49 ft | 0 kts | 211° |
| 2026-04-23 18:35 | 25.23842 | 55.38326 | 49 ft | 2 kts | 211° |
| 2026-04-23 18:35 | 25.23855 | 55.38334 | 49 ft | 2 kts | 211° |
| 2026-04-23 18:36 | 25.23864 | 55.38341 | 49 ft | 0 kts | 211° |
| 2026-04-23 18:36 | 25.23876 | 55.38348 | 49 ft | 2 kts | 200° |
| 2026-04-23 18:36 | 25.23891 | 55.38351 | 49 ft | 2 kts | 181° |
| 2026-04-23 18:36 | 25.23905 | 55.38350 | 49 ft | 2 kts | 166° |
| 2026-04-23 18:37 | 25.23919 | 55.38345 | 49 ft | 2 kts | 151° |
| 2026-04-23 18:37 | 25.23932 | 55.38336 | 49 ft | 2 kts | 136° |
| 2026-04-23 18:37 | 25.23940 | 55.38325 | 49 ft | 0 kts | 122° |
| 2026-04-23 18:37 | 25.23942 | 55.38320 | 49 ft | 0 kts | 120° |
| 2026-04-23 18:40 | 25.23931 | 55.38342 | 49 ft | 8 kts | 120° |
| 2026-04-23 18:40 | 25.23901 | 55.38404 | 49 ft | 7 kts | 114° |
| 2026-04-23 18:40 | 25.23878 | 55.38460 | 49 ft | 6 kts | 98° |
| 2026-04-23 18:41 | 25.23894 | 55.38503 | 49 ft | 8 kts | 51° |
| 2026-04-23 18:41 | 25.23962 | 55.38566 | 49 ft | 16 kts | 37° |
| 2026-04-23 18:41 | 25.24082 | 55.38641 | 49 ft | 22 kts | 28° |
| 2026-04-23 18:41 | 25.24198 | 55.38688 | 49 ft | 16 kts | 349° |
| 2026-04-23 18:42 | 25.24281 | 55.38610 | 48 ft | 17 kts | 303° |
| 2026-04-23 18:42 | 25.24350 | 55.38481 | 46 ft | 20 kts | 301° |
| 2026-04-23 18:42 | 25.24426 | 55.38342 | 44 ft | 22 kts | 301° |
| 2026-04-23 18:42 | 25.24493 | 55.38221 | 42 ft | 10 kts | 301° |
| 2026-04-23 18:43 | 25.24528 | 55.38165 | 43 ft | 7 kts | 322° |
| 2026-04-23 18:43 | 25.24558 | 55.38154 | 44 ft | 1 kts | 338° |
| 2026-04-23 18:43 | 25.24585 | 55.38117 | 44 ft | 12 kts | 301° |
| 2026-04-23 18:43 | 25.24664 | 55.38076 | 43 ft | 13 kts | 11° |
| 2026-04-23 18:44 | 25.24741 | 55.38103 | 43 ft | 9 kts | 360° |
| 2026-04-23 18:44 | 25.24783 | 55.38067 | 43 ft | 5 kts | 301° |
| 2026-04-23 18:44 | 25.24838 | 55.37970 | 43 ft | 42 kts | 301° |
| 2026-04-23 18:44 | 25.25153 | 55.37405 | 40 ft | 129 kts | 301° |
| 2026-04-23 18:45 | 25.25730 | 55.36354 | 315 ft | 177 kts | 302° |
| 2026-04-23 18:45 | 25.26356 | 55.35174 | 1295 ft | 184 kts | 302° |
| 2026-04-23 18:45 | 25.26956 | 55.34005 | 2212 ft | 183 kts | 304° |
| 2026-04-23 18:45 | 25.27643 | 55.32795 | 2861 ft | 196 kts | 305° |
| 2026-04-23 18:46 | 25.28363 | 55.31509 | 3648 ft | 203 kts | 304° |
| 2026-04-23 18:46 | 25.29063 | 55.30105 | 3934 ft | 210 kts | 289° |
| 2026-04-23 18:46 | 25.29166 | 55.28544 | 4095 ft | 211 kts | 260° |
| 2026-04-23 18:46 | 25.28625 | 55.27048 | 4999 ft | 209 kts | 242° |
| 2026-04-23 18:47 | 25.27986 | 55.25693 | 6091 ft | 198 kts | 242° |
| 2026-04-23 18:47 | 25.27379 | 55.24334 | 6775 ft | 205 kts | 243° |
| 2026-04-23 18:47 | 25.26761 | 55.22879 | 6935 ft | 208 kts | 243° |
| 2026-04-23 18:47 | 25.26135 | 55.21414 | 7090 ft | 219 kts | 244° |
| 2026-04-23 18:48 | 25.25494 | 55.19875 | 7842 ft | 228 kts | 243° |
| 2026-04-23 18:48 | 25.24753 | 55.18328 | 8566 ft | 237 kts | 231° |
| 2026-04-23 18:48 | 25.23514 | 55.17186 | 9438 ft | 238 kts | 207° |
| 2026-04-23 18:48 | 25.21898 | 55.16694 | 10103 ft | 252 kts | 184° |
| 2026-04-23 18:49 | 25.20106 | 55.16860 | 10886 ft | 266 kts | 167° |
| 2026-04-23 18:49 | 25.18448 | 55.17784 | 11732 ft | 279 kts | 143° |
| 2026-04-23 18:49 | 25.17193 | 55.19515 | 12341 ft | 304 kts | 122° |
| 2026-04-23 18:49 | 25.16217 | 55.21656 | 13098 ft | 318 kts | 119° |
| 2026-04-23 18:50 | 25.15559 | 55.23124 | 13727 ft | 323 kts | 120° |
| 2026-04-23 18:50 | 25.14173 | 55.26096 | 14687 ft | 333 kts | 120° |
| 2026-04-23 18:50 | 25.13084 | 55.28376 | 14850 ft | 336 kts | 120° |
| 2026-04-23 18:50 | 25.12007 | 55.30619 | 14861 ft | 333 kts | 120° |
| 2026-04-23 18:51 | 25.10910 | 55.32900 | 14864 ft | 333 kts | 120° |
| 2026-04-23 18:51 | 25.09879 | 55.35187 | 14881 ft | 341 kts | 116° |
| 2026-04-23 18:51 | 25.08907 | 55.37611 | 15747 ft | 350 kts | 115° |
| 2026-04-23 18:51 | 25.07940 | 55.40009 | 17049 ft | 345 kts | 115° |
| 2026-04-23 18:52 | 25.06959 | 55.42423 | 18015 ft | 351 kts | 114° |
| 2026-04-23 18:52 | 25.05981 | 55.44960 | 18673 ft | 368 kts | 113° |
| 2026-04-23 18:52 | 25.04971 | 55.47610 | 19328 ft | 384 kts | 114° |
| 2026-04-23 18:52 | 25.03916 | 55.50362 | 19990 ft | 399 kts | 113° |
| 2026-04-23 18:53 | 25.02819 | 55.53216 | 20691 ft | 413 kts | 114° |
| 2026-04-23 18:53 | 25.01597 | 55.56072 | 21583 ft | 419 kts | 120° |
| 2026-04-23 18:53 | 25.00129 | 55.58847 | 22559 ft | 422 kts | 122° |
| 2026-04-23 18:53 | 24.98619 | 55.61641 | 23492 ft | 428 kts | 122° |
| 2026-04-23 18:54 | 24.97105 | 55.64440 | 24370 ft | 433 kts | 121° |
| 2026-04-23 18:54 | 24.95544 | 55.67327 | 24827 ft | 436 kts | 122° |
| 2026-04-23 18:54 | 24.93956 | 55.70164 | 24879 ft | 434 kts | 126° |
| 2026-04-23 18:54 | 24.92217 | 55.72841 | 24887 ft | 431 kts | 127° |
| 2026-04-23 18:55 | 24.90457 | 55.75493 | 24892 ft | 431 kts | 128° |
| 2026-04-23 18:55 | 24.88666 | 55.78190 | 24897 ft | 431 kts | 127° |
| 2026-04-23 18:55 | 24.86914 | 55.80828 | 24903 ft | 432 kts | 127° |
| 2026-04-23 18:55 | 24.85137 | 55.83503 | 24913 ft | 431 kts | 127° |
| 2026-04-23 18:56 | 24.83973 | 55.85255 | 24919 ft | 430 kts | 127° |
| 2026-04-23 18:56 | 24.81590 | 55.88784 | 24932 ft | 431 kts | 128° |
| 2026-04-23 18:56 | 24.79785 | 55.91444 | 24943 ft | 432 kts | 128° |
| 2026-04-23 18:56 | 24.77890 | 55.94020 | 24950 ft | 430 kts | 135° |
| 2026-04-23 18:57 | 24.75778 | 55.96281 | 24963 ft | 428 kts | 138° |
| 2026-04-23 18:57 | 24.73604 | 55.98521 | 24968 ft | 428 kts | 139° |
| 2026-04-23 18:57 | 24.71417 | 56.00767 | 24970 ft | 429 kts | 139° |
| 2026-04-23 18:57 | 24.69233 | 56.03012 | 24964 ft | 429 kts | 139° |
| 2026-04-23 18:58 | 24.67051 | 56.05255 | 24960 ft | 427 kts | 139° |
| 2026-04-23 18:58 | 24.64897 | 56.07472 | 24960 ft | 429 kts | 138° |
| 2026-04-23 18:58 | 24.62716 | 56.09716 | 24958 ft | 429 kts | 138° |
| 2026-04-23 18:58 | 24.60521 | 56.11974 | 24961 ft | 428 kts | 139° |
| 2026-04-23 18:59 | 24.58338 | 56.14217 | 24968 ft | 429 kts | 139° |
| 2026-04-23 18:59 | 24.56271 | 56.16552 | 24980 ft | 430 kts | 133° |
| 2026-04-23 18:59 | 24.54304 | 56.19044 | 24990 ft | 430 kts | 132° |
| 2026-04-23 18:59 | 24.52367 | 56.21518 | 25000 ft | 430 kts | 131° |
| 2026-04-23 19:00 | 24.50411 | 56.24015 | 25017 ft | 431 kts | 132° |
| 2026-04-23 19:00 | 24.48452 | 56.26513 | 25026 ft | 430 kts | 132° |
| 2026-04-23 19:00 | 24.46500 | 56.28999 | 25011 ft | 429 kts | 132° |
| 2026-04-23 19:00 | 24.44556 | 56.31473 | 25001 ft | 431 kts | 132° |
| 2026-04-23 19:01 | 24.42595 | 56.33968 | 24978 ft | 430 kts | 131° |
| 2026-04-23 19:01 | 24.40662 | 56.36424 | 24963 ft | 430 kts | 132° |
| 2026-04-23 19:01 | 24.38699 | 56.38918 | 24945 ft | 430 kts | 132° |
| 2026-04-23 19:01 | 24.36736 | 56.41409 | 24930 ft | 430 kts | 131° |
| 2026-04-23 19:02 | 24.35449 | 56.43043 | 24918 ft | 429 kts | 132° |
| 2026-04-23 19:02 | 24.32851 | 56.46337 | 24900 ft | 430 kts | 132° |
| 2026-04-23 19:02 | 24.30891 | 56.48821 | 24894 ft | 430 kts | 131° |
| 2026-04-23 19:02 | 24.28954 | 56.51311 | 24872 ft | 429 kts | 128° |
| 2026-04-23 19:03 | 24.27189 | 56.53960 | 24879 ft | 431 kts | 126° |
| 2026-04-23 19:03 | 24.25455 | 56.56632 | 24876 ft | 431 kts | 126° |
| 2026-04-23 19:03 | 24.23710 | 56.59306 | 24868 ft | 430 kts | 126° |
| 2026-04-23 19:03 | 24.21971 | 56.61956 | 24863 ft | 431 kts | 126° |
| 2026-04-23 19:04 | 24.20215 | 56.64621 | 24860 ft | 431 kts | 126° |
| 2026-04-23 19:04 | 24.18452 | 56.67290 | 24859 ft | 431 kts | 127° |
| 2026-04-23 19:04 | 24.16679 | 56.69967 | 24853 ft | 431 kts | 127° |
| 2026-04-23 19:04 | 24.14920 | 56.72618 | 24851 ft | 429 kts | 127° |
| 2026-04-23 19:05 | 24.13164 | 56.75260 | 24851 ft | 431 kts | 127° |
| 2026-04-23 19:05 | 24.11421 | 56.77880 | 24843 ft | 430 kts | 127° |
| 2026-04-23 19:05 | 24.09650 | 56.80541 | 24849 ft | 430 kts | 127° |
| 2026-04-23 19:05 | 24.07882 | 56.83193 | 24846 ft | 430 kts | 127° |
| 2026-04-23 19:06 | 24.06131 | 56.85818 | 24845 ft | 430 kts | 127° |
| 2026-04-23 19:06 | 24.04363 | 56.88468 | 24841 ft | 429 kts | 127° |
| 2026-04-23 19:06 | 24.02583 | 56.91132 | 24845 ft | 431 kts | 127° |
| 2026-04-23 19:06 | 24.00825 | 56.93760 | 24835 ft | 431 kts | 127° |
| 2026-04-23 19:07 | 23.99051 | 56.96409 | 24837 ft | 430 kts | 127° |
| 2026-04-23 19:07 | 23.97285 | 56.99048 | 24828 ft | 429 kts | 127° |
| 2026-04-23 19:07 | 23.95517 | 57.01685 | 24845 ft | 431 kts | 127° |
| 2026-04-23 19:07 | 23.93757 | 57.04310 | 24836 ft | 430 kts | 127° |
| 2026-04-23 19:08 | 23.91996 | 57.06936 | 24842 ft | 429 kts | 127° |
| 2026-04-23 19:08 | 23.90232 | 57.09564 | 24853 ft | 431 kts | 127° |
| 2026-04-23 19:08 | 23.88452 | 57.12216 | 24839 ft | 429 kts | 127° |
| 2026-04-23 19:08 | 23.86695 | 57.14833 | 24839 ft | 429 kts | 127° |
| 2026-04-23 19:09 | 23.84927 | 57.17463 | 24862 ft | 430 kts | 127° |
| 2026-04-23 19:09 | 23.83141 | 57.20121 | 24857 ft | 429 kts | 127° |
| 2026-04-23 19:09 | 23.81380 | 57.22739 | 24850 ft | 429 kts | 127° |
| 2026-04-23 19:09 | 23.79612 | 57.25366 | 24859 ft | 429 kts | 127° |
| 2026-04-23 19:10 | 23.77852 | 57.27980 | 24845 ft | 430 kts | 127° |
| 2026-04-23 19:10 | 23.76084 | 57.30606 | 24855 ft | 429 kts | 127° |
| 2026-04-23 19:10 | 23.74312 | 57.33234 | 24859 ft | 430 kts | 127° |
| 2026-04-23 19:10 | 23.72588 | 57.35856 | 24863 ft | 429 kts | 122° |
| 2026-04-23 19:11 | 23.71153 | 57.38723 | 24883 ft | 430 kts | 116° |
| 2026-04-23 19:11 | 23.69838 | 57.41659 | 24881 ft | 430 kts | 116° |
| 2026-04-23 19:11 | 23.68536 | 57.44585 | 24868 ft | 429 kts | 116° |
| 2026-04-23 19:11 | 23.67236 | 57.47503 | 24874 ft | 428 kts | 116° |
| 2026-04-23 19:12 | 23.66374 | 57.49436 | 24748 ft | 421 kts | 116° |
| 2026-04-23 19:12 | 23.64689 | 57.53210 | 24114 ft | 418 kts | 116° |
| 2026-04-23 19:12 | 23.63419 | 57.56053 | 23550 ft | 417 kts | 116° |
| 2026-04-23 19:12 | 23.62155 | 57.58881 | 23000 ft | 415 kts | 116° |
| 2026-04-23 19:13 | 23.60898 | 57.61690 | 22490 ft | 413 kts | 116° |
| 2026-04-23 19:13 | 23.59634 | 57.64512 | 21982 ft | 411 kts | 116° |
| 2026-04-23 19:13 | 23.58392 | 57.67284 | 21456 ft | 409 kts | 116° |
| 2026-04-23 19:13 | 23.57141 | 57.70073 | 20925 ft | 407 kts | 116° |
| 2026-04-23 19:14 | 23.55913 | 57.72811 | 20412 ft | 405 kts | 116° |
| 2026-04-23 19:14 | 23.54670 | 57.75578 | 19879 ft | 403 kts | 116° |
| 2026-04-23 19:14 | 23.53447 | 57.78302 | 19374 ft | 401 kts | 116° |
| 2026-04-23 19:14 | 23.52231 | 57.81007 | 18872 ft | 399 kts | 116° |
| 2026-04-23 19:15 | 23.51018 | 57.83704 | 18348 ft | 397 kts | 116° |
| 2026-04-23 19:15 | 23.49800 | 57.86424 | 17789 ft | 396 kts | 114° |
| 2026-04-23 19:15 | 23.48897 | 57.89216 | 17268 ft | 392 kts | 102° |
| 2026-04-23 19:15 | 23.48505 | 57.92136 | 16757 ft | 388 kts | 91° |
| 2026-04-23 19:16 | 23.48416 | 57.95025 | 16262 ft | 385 kts | 90° |
| 2026-04-23 19:16 | 23.48356 | 57.97919 | 15753 ft | 383 kts | 90° |
| 2026-04-23 19:16 | 23.48299 | 58.00799 | 15255 ft | 379 kts | 90° |
| 2026-04-23 19:17 | 23.48193 | 58.06396 | 14235 ft | 362 kts | 90° |
| 2026-04-23 19:17 | 23.48141 | 58.09128 | 13744 ft | 354 kts | 90° |
| 2026-04-23 19:17 | 23.48092 | 58.11755 | 13258 ft | 346 kts | 90° |
| 2026-04-23 19:17 | 23.48044 | 58.14336 | 12825 ft | 337 kts | 90° |
| 2026-04-23 19:18 | 23.47997 | 58.16831 | 12431 ft | 329 kts | 90° |
| 2026-04-23 19:18 | 23.47950 | 58.19327 | 12131 ft | 321 kts | 90° |
| 2026-04-23 19:18 | 23.47905 | 58.21706 | 11796 ft | 308 kts | 90° |
| 2026-04-23 19:18 | 23.47872 | 58.24001 | 11261 ft | 304 kts | 87° |
| 2026-04-23 19:19 | 23.48203 | 58.28575 | 10200 ft | 303 kts | 84° |
| 2026-04-23 19:19 | 23.48399 | 58.30840 | 9850 ft | 302 kts | 84° |
| 2026-04-23 19:20 | 23.48777 | 58.35347 | 9206 ft | 298 kts | 84° |
| 2026-04-23 19:20 | 23.48965 | 58.37603 | 8865 ft | 296 kts | 84° |
| 2026-04-23 19:20 | 23.49149 | 58.39830 | 8552 ft | 295 kts | 85° |
| 2026-04-23 19:20 | 23.49333 | 58.42047 | 8237 ft | 292 kts | 85° |
| 2026-04-23 19:21 | 23.49512 | 58.44222 | 7887 ft | 292 kts | 85° |
| 2026-04-23 19:21 | 23.49872 | 58.48584 | 7289 ft | 287 kts | 85° |
| 2026-04-23 19:21 | 23.50051 | 58.50763 | 6993 ft | 285 kts | 85° |
| 2026-04-23 19:22 | 23.50226 | 58.52902 | 6662 ft | 284 kts | 85° |
| 2026-04-23 19:22 | 23.50401 | 58.55029 | 6342 ft | 283 kts | 84° |
| 2026-04-23 19:22 | 23.52317 | 58.58566 | 5987 ft | 283 kts | 31° |
| 2026-04-23 19:23 | 23.54120 | 58.59229 | 5957 ft | 269 kts | 4° |
| 2026-04-23 19:23 | 23.55907 | 58.58979 | 5897 ft | 253 kts | 337° |
| 2026-04-23 19:23 | 23.57362 | 58.58010 | 5800 ft | 240 kts | 318° |
| 2026-04-23 19:24 | 23.59758 | 58.55482 | 4784 ft | 250 kts | 313° |
| 2026-04-23 19:24 | 23.60816 | 58.53972 | 4259 ft | 249 kts | 293° |
| 2026-04-23 19:24 | 23.61104 | 58.50422 | 3611 ft | 233 kts | 265° |
| 2026-04-23 19:25 | 23.60781 | 58.47013 | 3024 ft | 220 kts | 266° |
| 2026-04-23 19:25 | 23.60529 | 58.43798 | 2486 ft | 199 kts | 266° |
| 2026-04-23 19:26 | 23.60314 | 58.40995 | 1980 ft | 174 kts | 266° |
| 2026-04-23 19:26 | 23.60215 | 58.39761 | 1742 ft | 157 kts | 267° |
| 2026-04-23 19:27 | 23.60032 | 58.37500 | 1209 ft | 146 kts | 266° |
| 2026-04-23 19:27 | 23.59769 | 58.34230 | 651 ft | 143 kts | 266° |
| 2026-04-23 19:28 | 23.59595 | 58.32077 | 331 ft | 141 kts | 266° |
| 2026-04-23 19:28 | 23.59429 | 58.29944 | 54 ft | 139 kts | 266° |
| 2026-04-23 19:29 | 23.59351 | 58.29020 | 45 ft | 97 kts | 262° |
| 2026-04-23 19:29 | 23.59266 | 58.27928 | 46 ft | 39 kts | 264° |
| 2026-04-23 19:30 | 23.59223 | 58.27387 | 46 ft | 34 kts | 264° |
| 2026-04-23 19:30 | 23.59202 | 58.27124 | 46 ft | 36 kts | 265° |
| 2026-04-23 19:30 | 23.59178 | 58.26731 | 46 ft | 9 kts | 291° |
| 2026-04-23 19:31 | 23.59235 | 58.26697 | 46 ft | 10 kts | 355° |
| 2026-04-23 19:31 | 23.59306 | 58.26698 | 46 ft | 10 kts | 5° |
| 2026-04-23 19:31 | 23.59385 | 58.26693 | 46 ft | 14 kts | 354° |
| 2026-04-23 19:31 | 23.59467 | 58.26745 | 46 ft | 14 kts | 77° |
| 2026-04-23 19:32 | 23.59478 | 58.26855 | 46 ft | 14 kts | 85° |
| 2026-04-23 19:32 | 23.59484 | 58.26965 | 45 ft | 14 kts | 86° |
| 2026-04-23 19:32 | 23.59491 | 58.27076 | 45 ft | 15 kts | 85° |
| 2026-04-23 19:32 | 23.59504 | 58.27203 | 45 ft | 17 kts | 83° |
| 2026-04-23 19:33 | 23.59519 | 58.27331 | 45 ft | 16 kts | 75° |
| 2026-04-23 19:33 | 23.59582 | 58.27376 | 45 ft | 11 kts | 355° |
| 2026-04-23 19:33 | 23.59792 | 58.27353 | 45 ft | 20 kts | 354° |
| 2026-04-23 19:34 | 23.59945 | 58.27337 | 45 ft | 22 kts | 354° |
| 2026-04-23 19:34 | 23.60098 | 58.27325 | 45 ft | 21 kts | 355° |
| 2026-04-23 19:34 | 23.60363 | 58.27302 | 45 ft | 12 kts | 356° |
| 2026-04-23 19:35 | 23.60437 | 58.27324 | 45 ft | 11 kts | 56° |
| 2026-04-23 19:35 | 23.60458 | 58.27412 | 45 ft | 12 kts | 83° |
| 2026-04-23 19:35 | 23.60467 | 58.27510 | 45 ft | 13 kts | 84° |
| 2026-04-23 19:35 | 23.60476 | 58.27618 | 45 ft | 15 kts | 84° |
| 2026-04-23 19:36 | 23.60487 | 58.27750 | 45 ft | 19 kts | 84° |
| 2026-04-23 19:36 | 23.60500 | 58.27912 | 45 ft | 23 kts | 84° |
| 2026-04-23 19:36 | 23.60515 | 58.28081 | 45 ft | 21 kts | 85° |
| 2026-04-23 19:36 | 23.60522 | 58.28200 | 45 ft | 10 kts | 86° |
| 2026-04-23 19:37 | 23.60526 | 58.28279 | 45 ft | 10 kts | 88° |
| 2026-04-23 19:37 | 23.60492 | 58.28343 | 45 ft | 10 kts | 155° |
| 2026-04-23 19:37 | 23.60421 | 58.28367 | 45 ft | 10 kts | 141° |
| 2026-04-23 19:37 | 23.60397 | 58.28438 | 45 ft | 10 kts | 86° |
| 2026-04-23 19:38 | 23.60406 | 58.28507 | 45 ft | 7 kts | 84° |
| 2026-04-23 19:38 | 23.60409 | 58.28547 | 45 ft | 3 kts | 85° |
| 2026-04-23 19:38 | 23.60410 | 58.28555 | 45 ft | 0 kts | 85° |